sensor_id;sensor_type;location;lat;lon;timestamp;P1;durP1;ratioP1;P2;durP2;ratioP2
26963;SDS011;14521;48.148;-1.656;2024-03-07T00:02:52;3.22;;;1.63;;
26963;SDS011;14521;48.148;-1.656;2024-03-07T00:06:16;2.47;;;1.58;;
26963;SDS011;14521;48.148;-1.656;2024-03-07T00:09:38;4.65;;;1.60;;
26963;SDS011;14521;48.148;-1.656;2024-03-07T00:13:01;2.80;;;1.90;;
26963;SDS011;14521;48.148;-1.656;2024-03-07T00:16:25;2.33;;;1.50;;
26963;SDS011;14521;48.148;-1.656;2024-03-07T00:19:47;2.28;;;1.70;;
26963;SDS011;14521;48.148;-1.656;2024-03-07T00:23:09;2.35;;;1.70;;
26963;SDS011;14521;48.148;-1.656;2024-03-07T00:26:32;1.98;;;1.52;;
26963;SDS011;14521;48.148;-1.656;2024-03-07T00:29:55;1.38;;;1.27;;
26963;SDS011;14521;48.148;-1.656;2024-03-07T00:33:18;2.50;;;1.92;;
26963;SDS011;14521;48.148;-1.656;2024-03-07T00:36:43;2.03;;;1.70;;
26963;SDS011;14521;48.148;-1.656;2024-03-07T00:40:06;2.25;;;1.55;;
26963;SDS011;14521;48.148;-1.656;2024-03-07T00:43:29;1.85;;;1.48;;
26963;SDS011;14521;48.148;-1.656;2024-03-07T00:46:51;1.77;;;1.40;;
26963;SDS011;14521;48.148;-1.656;2024-03-07T00:50:14;1.95;;;1.75;;
26963;SDS011;14521;48.148;-1.656;2024-03-07T00:53:36;2.28;;;1.63;;
26963;SDS011;14521;48.148;-1.656;2024-03-07T00:56:59;1.83;;;1.52;;
26963;SDS011;14521;48.148;-1.656;2024-03-07T01:00:21;1.50;;;1.40;;
26963;SDS011;14521;48.148;-1.656;2024-03-07T01:03:43;1.67;;;1.45;;
26963;SDS011;14521;48.148;-1.656;2024-03-07T01:07:06;3.22;;;1.60;;
26963;SDS011;14521;48.148;-1.656;2024-03-07T01:10:28;1.40;;;1.20;;
26963;SDS011;14521;48.148;-1.656;2024-03-07T01:13:51;3.67;;;1.27;;
26963;SDS011;14521;48.148;-1.656;2024-03-07T01:17:13;2.20;;;1.55;;
26963;SDS011;14521;48.148;-1.656;2024-03-07T01:20:36;2.60;;;1.63;;
26963;SDS011;14521;48.148;-1.656;2024-03-07T01:23:58;1.88;;;1.50;;
26963;SDS011;14521;48.148;-1.656;2024-03-07T01:27:22;1.48;;;1.38;;
26963;SDS011;14521;48.148;-1.656;2024-03-07T01:30:46;2.05;;;1.27;;
26963;SDS011;14521;48.148;-1.656;2024-03-07T01:34:08;1.38;;;1.27;;
26963;SDS011;14521;48.148;-1.656;2024-03-07T01:37:30;2.60;;;1.30;;
26963;SDS011;14521;48.148;-1.656;2024-03-07T01:40:53;2.22;;;1.55;;
26963;SDS011;14521;48.148;-1.656;2024-03-07T01:44:16;3.38;;;1.23;;
26963;SDS011;14521;48.148;-1.656;2024-03-07T01:47:38;3.05;;;1.30;;
26963;SDS011;14521;48.148;-1.656;2024-03-07T01:51:01;1.40;;;1.20;;
26963;SDS011;14521;48.148;-1.656;2024-03-07T01:57:49;2.30;;;1.17;;
26963;SDS011;14521;48.148;-1.656;2024-03-07T02:01:11;1.73;;;1.20;;
26963;SDS011;14521;48.148;-1.656;2024-03-07T02:04:36;2.40;;;1.30;;
26963;SDS011;14521;48.148;-1.656;2024-03-07T02:08:01;1.92;;;1.20;;
26963;SDS011;14521;48.148;-1.656;2024-03-07T02:11:23;2.95;;;1.70;;
26963;SDS011;14521;48.148;-1.656;2024-03-07T02:14:46;1.17;;;1.13;;
26963;SDS011;14521;48.148;-1.656;2024-03-07T02:18:09;1.73;;;1.50;;
26963;SDS011;14521;48.148;-1.656;2024-03-07T02:21:31;2.83;;;1.42;;
26963;SDS011;14521;48.148;-1.656;2024-03-07T02:24:54;1.58;;;1.10;;
26963;SDS011;14521;48.148;-1.656;2024-03-07T02:28:17;1.65;;;1.20;;
26963;SDS011;14521;48.148;-1.656;2024-03-07T02:31:39;2.17;;;1.30;;
26963;SDS011;14521;48.148;-1.656;2024-03-07T02:35:06;1.27;;;1.17;;
26963;SDS011;14521;48.148;-1.656;2024-03-07T02:38:30;6.03;;;1.38;;
26963;SDS011;14521;48.148;-1.656;2024-03-07T02:41:52;3.53;;;1.30;;
26963;SDS011;14521;48.148;-1.656;2024-03-07T02:45:15;1.42;;;1.33;;
26963;SDS011;14521;48.148;-1.656;2024-03-07T02:48:38;2.30;;;1.40;;
26963;SDS011;14521;48.148;-1.656;2024-03-07T02:52:00;2.05;;;1.25;;
26963;SDS011;14521;48.148;-1.656;2024-03-07T02:55:23;2.58;;;1.10;;
26963;SDS011;14521;48.148;-1.656;2024-03-07T02:58:45;2.38;;;1.52;;
26963;SDS011;14521;48.148;-1.656;2024-03-07T03:02:08;1.20;;;1.10;;
26963;SDS011;14521;48.148;-1.656;2024-03-07T03:05:30;2.05;;;1.48;;
26963;SDS011;14521;48.148;-1.656;2024-03-07T03:08:52;3.17;;;1.20;;
26963;SDS011;14521;48.148;-1.656;2024-03-07T03:12:16;2.45;;;1.38;;
26963;SDS011;14521;48.148;-1.656;2024-03-07T03:15:38;1.73;;;1.25;;
26963;SDS011;14521;48.148;-1.656;2024-03-07T03:19:01;3.50;;;1.30;;
26963;SDS011;14521;48.148;-1.656;2024-03-07T03:22:23;1.13;;;1.08;;
26963;SDS011;14521;48.148;-1.656;2024-03-07T03:25:45;1.42;;;1.30;;
26963;SDS011;14521;48.148;-1.656;2024-03-07T03:29:10;1.50;;;1.40;;
26963;SDS011;14521;48.148;-1.656;2024-03-07T03:32:33;1.90;;;1.27;;
26963;SDS011;14521;48.148;-1.656;2024-03-07T03:35:56;2.20;;;1.55;;
26963;SDS011;14521;48.148;-1.656;2024-03-07T03:39:18;1.33;;;1.23;;
26963;SDS011;14521;48.148;-1.656;2024-03-07T03:42:42;1.85;;;1.40;;
26963;SDS011;14521;48.148;-1.656;2024-03-07T03:46:05;1.40;;;1.30;;
26963;SDS011;14521;48.148;-1.656;2024-03-07T03:49:32;1.85;;;1.10;;
26963;SDS011;14521;48.148;-1.656;2024-03-07T03:52:54;1.02;;;1.02;;
26963;SDS011;14521;48.148;-1.656;2024-03-07T03:56:16;1.35;;;1.25;;
26963;SDS011;14521;48.148;-1.656;2024-03-07T03:59:42;1.88;;;1.33;;
26963;SDS011;14521;48.148;-1.656;2024-03-07T04:03:06;1.38;;;1.27;;
26963;SDS011;14521;48.148;-1.656;2024-03-07T04:06:28;1.35;;;1.25;;
26963;SDS011;14521;48.148;-1.656;2024-03-07T04:09:50;2.47;;;1.45;;
26963;SDS011;14521;48.148;-1.656;2024-03-07T04:13:13;1.30;;;1.20;;
26963;SDS011;14521;48.148;-1.656;2024-03-07T04:16:35;1.45;;;1.23;;
26963;SDS011;14521;48.148;-1.656;2024-03-07T04:19:57;2.30;;;1.02;;
26963;SDS011;14521;48.148;-1.656;2024-03-07T04:23:20;1.63;;;1.08;;
26963;SDS011;14521;48.148;-1.656;2024-03-07T04:26:42;0.82;;;0.80;;
26963;SDS011;14521;48.148;-1.656;2024-03-07T04:30:05;2.28;;;1.10;;
26963;SDS011;14521;48.148;-1.656;2024-03-07T04:33:28;1.80;;;1.25;;
26963;SDS011;14521;48.148;-1.656;2024-03-07T04:36:51;1.60;;;0.90;;
26963;SDS011;14521;48.148;-1.656;2024-03-07T04:40:13;1.73;;;1.30;;
26963;SDS011;14521;48.148;-1.656;2024-03-07T04:43:40;1.20;;;1.10;;
26963;SDS011;14521;48.148;-1.656;2024-03-07T04:47:04;1.20;;;1.10;;
26963;SDS011;14521;48.148;-1.656;2024-03-07T04:50:27;1.10;;;1.00;;
26963;SDS011;14521;48.148;-1.656;2024-03-07T04:53:50;1.35;;;1.00;;
26963;SDS011;14521;48.148;-1.656;2024-03-07T04:57:13;2.33;;;1.20;;
26963;SDS011;14521;48.148;-1.656;2024-03-07T05:00:35;1.40;;;1.08;;
26963;SDS011;14521;48.148;-1.656;2024-03-07T05:03:57;1.10;;;0.98;;
26963;SDS011;14521;48.148;-1.656;2024-03-07T05:07:20;1.65;;;1.45;;
26963;SDS011;14521;48.148;-1.656;2024-03-07T05:10:42;1.42;;;1.05;;
26963;SDS011;14521;48.148;-1.656;2024-03-07T05:14:04;1.00;;;0.90;;
26963;SDS011;14521;48.148;-1.656;2024-03-07T05:17:27;1.20;;;0.93;;
26963;SDS011;14521;48.148;-1.656;2024-03-07T05:20:50;2.17;;;1.17;;
26963;SDS011;14521;48.148;-1.656;2024-03-07T05:24:13;1.00;;;1.00;;
26963;SDS011;14521;48.148;-1.656;2024-03-07T05:27:36;2.30;;;1.25;;
26963;SDS011;14521;48.148;-1.656;2024-03-07T05:31:00;2.08;;;1.30;;
26963;SDS011;14521;48.148;-1.656;2024-03-07T05:34:22;1.95;;;1.10;;
26963;SDS011;14521;48.148;-1.656;2024-03-07T05:37:45;2.40;;;1.17;;
26963;SDS011;14521;48.148;-1.656;2024-03-07T05:41:12;1.25;;;1.10;;
26963;SDS011;14521;48.148;-1.656;2024-03-07T05:44:35;1.10;;;1.00;;
26963;SDS011;14521;48.148;-1.656;2024-03-07T05:47:58;2.40;;;1.00;;
26963;SDS011;14521;48.148;-1.656;2024-03-07T05:51:36;1.00;;;0.85;;
26963;SDS011;14521;48.148;-1.656;2024-03-07T05:54:59;1.40;;;0.90;;
26963;SDS011;14521;48.148;-1.656;2024-03-07T05:58:22;0.93;;;0.85;;
26963;SDS011;14521;48.148;-1.656;2024-03-07T06:01:44;3.22;;;0.90;;
26963;SDS011;14521;48.148;-1.656;2024-03-07T06:05:06;2.83;;;0.85;;
26963;SDS011;14521;48.148;-1.656;2024-03-07T06:08:34;1.10;;;1.00;;
26963;SDS011;14521;48.148;-1.656;2024-03-07T06:11:56;1.02;;;0.93;;
26963;SDS011;14521;48.148;-1.656;2024-03-07T06:15:18;0.80;;;0.80;;
26963;SDS011;14521;48.148;-1.656;2024-03-07T06:18:42;1.60;;;0.90;;
26963;SDS011;14521;48.148;-1.656;2024-03-07T06:22:05;2.17;;;0.88;;
26963;SDS011;14521;48.148;-1.656;2024-03-07T06:25:31;0.90;;;0.80;;
26963;SDS011;14521;48.148;-1.656;2024-03-07T06:28:59;3.05;;;1.05;;
26963;SDS011;14521;48.148;-1.656;2024-03-07T06:32:22;1.25;;;0.70;;
26963;SDS011;14521;48.148;-1.656;2024-03-07T06:35:44;2.80;;;0.85;;
26963;SDS011;14521;48.148;-1.656;2024-03-07T06:39:07;6.07;;;1.02;;
26963;SDS011;14521;48.148;-1.656;2024-03-07T06:42:32;2.35;;;0.90;;
26963;SDS011;14521;48.148;-1.656;2024-03-07T06:45:54;1.00;;;0.77;;
26963;SDS011;14521;48.148;-1.656;2024-03-07T06:49:16;5.00;;;0.80;;
26963;SDS011;14521;48.148;-1.656;2024-03-07T06:52:39;1.67;;;0.80;;
26963;SDS011;14521;48.148;-1.656;2024-03-07T06:56:02;1.45;;;0.90;;
26963;SDS011;14521;48.148;-1.656;2024-03-07T06:59:24;1.48;;;0.80;;
26963;SDS011;14521;48.148;-1.656;2024-03-07T07:02:48;1.38;;;1.00;;
26963;SDS011;14521;48.148;-1.656;2024-03-07T07:06:11;1.50;;;1.00;;
26963;SDS011;14521;48.148;-1.656;2024-03-07T07:09:33;2.30;;;0.65;;
26963;SDS011;14521;48.148;-1.656;2024-03-07T07:12:57;1.08;;;0.80;;
26963;SDS011;14521;48.148;-1.656;2024-03-07T07:16:19;0.90;;;0.70;;
26963;SDS011;14521;48.148;-1.656;2024-03-07T07:19:41;1.63;;;1.08;;
26963;SDS011;14521;48.148;-1.656;2024-03-07T07:23:03;4.15;;;0.70;;
26963;SDS011;14521;48.148;-1.656;2024-03-07T07:26:26;1.50;;;0.88;;
26963;SDS011;14521;48.148;-1.656;2024-03-07T07:29:48;1.73;;;0.57;;
26963;SDS011;14521;48.148;-1.656;2024-03-07T07:33:11;0.82;;;0.82;;
26963;SDS011;14521;48.148;-1.656;2024-03-07T07:36:35;2.15;;;0.50;;
26963;SDS011;14521;48.148;-1.656;2024-03-07T07:39:58;2.20;;;0.85;;
26963;SDS011;14521;48.148;-1.656;2024-03-07T07:43:20;1.92;;;0.80;;
26963;SDS011;14521;48.148;-1.656;2024-03-07T07:46:58;7.25;;;0.98;;
26963;SDS011;14521;48.148;-1.656;2024-03-07T07:50:21;2.13;;;1.00;;
26963;SDS011;14521;48.148;-1.656;2024-03-07T07:53:46;3.25;;;1.05;;
26963;SDS011;14521;48.148;-1.656;2024-03-07T07:57:08;0.90;;;0.70;;
26963;SDS011;14521;48.148;-1.656;2024-03-07T08:00:31;1.00;;;0.60;;
26963;SDS011;14521;48.148;-1.656;2024-03-07T08:03:53;1.70;;;0.75;;
26963;SDS011;14521;48.148;-1.656;2024-03-07T08:07:16;1.42;;;0.70;;
26963;SDS011;14521;48.148;-1.656;2024-03-07T08:10:39;2.67;;;1.45;;
26963;SDS011;14521;48.148;-1.656;2024-03-07T08:14:06;2.38;;;0.98;;
26963;SDS011;14521;48.148;-1.656;2024-03-07T08:17:28;2.42;;;1.10;;
26963;SDS011;14521;48.148;-1.656;2024-03-07T08:20:52;2.28;;;1.00;;
26963;SDS011;14521;48.148;-1.656;2024-03-07T08:24:17;0.80;;;0.65;;
26963;SDS011;14521;48.148;-1.656;2024-03-07T08:27:40;0.88;;;0.88;;
26963;SDS011;14521;48.148;-1.656;2024-03-07T08:31:03;2.87;;;0.80;;
26963;SDS011;14521;48.148;-1.656;2024-03-07T08:34:26;2.85;;;0.90;;
26963;SDS011;14521;48.148;-1.656;2024-03-07T08:37:49;1.45;;;0.70;;
26963;SDS011;14521;48.148;-1.656;2024-03-07T08:41:15;3.35;;;0.82;;
26963;SDS011;14521;48.148;-1.656;2024-03-07T08:44:37;3.75;;;0.70;;
26963;SDS011;14521;48.148;-1.656;2024-03-07T08:48:00;1.30;;;0.80;;
26963;SDS011;14521;48.148;-1.656;2024-03-07T08:51:22;1.13;;;0.90;;
26963;SDS011;14521;48.148;-1.656;2024-03-07T08:54:45;1.02;;;0.68;;
26963;SDS011;14521;48.148;-1.656;2024-03-07T08:58:07;2.35;;;0.90;;
26963;SDS011;14521;48.148;-1.656;2024-03-07T09:01:30;0.90;;;0.90;;
26963;SDS011;14521;48.148;-1.656;2024-03-07T09:04:52;0.98;;;0.88;;
26963;SDS011;14521;48.148;-1.656;2024-03-07T09:08:14;1.60;;;0.57;;
26963;SDS011;14521;48.148;-1.656;2024-03-07T09:11:37;1.00;;;0.82;;
26963;SDS011;14521;48.148;-1.656;2024-03-07T09:15:00;2.53;;;0.85;;
26963;SDS011;14521;48.148;-1.656;2024-03-07T09:18:22;1.80;;;0.95;;
26963;SDS011;14521;48.148;-1.656;2024-03-07T09:21:47;2.10;;;0.73;;
26963;SDS011;14521;48.148;-1.656;2024-03-07T09:25:11;3.50;;;0.68;;
26963;SDS011;14521;48.148;-1.656;2024-03-07T09:28:38;1.30;;;0.60;;
26963;SDS011;14521;48.148;-1.656;2024-03-07T09:32:01;2.33;;;0.82;;
26963;SDS011;14521;48.148;-1.656;2024-03-07T09:35:24;1.80;;;0.90;;
26963;SDS011;14521;48.148;-1.656;2024-03-07T09:38:47;1.08;;;0.85;;
26963;SDS011;14521;48.148;-1.656;2024-03-07T09:42:09;1.67;;;0.70;;
26963;SDS011;14521;48.148;-1.656;2024-03-07T09:48:57;1.08;;;0.65;;
26963;SDS011;14521;48.148;-1.656;2024-03-07T09:52:20;1.38;;;0.80;;
26963;SDS011;14521;48.148;-1.656;2024-03-07T09:55:42;0.90;;;0.90;;
26963;SDS011;14521;48.148;-1.656;2024-03-07T09:59:05;1.05;;;1.02;;
26963;SDS011;14521;48.148;-1.656;2024-03-07T10:02:32;0.50;;;0.50;;
26963;SDS011;14521;48.148;-1.656;2024-03-07T10:05:56;1.95;;;0.77;;
26963;SDS011;14521;48.148;-1.656;2024-03-07T10:09:18;2.63;;;0.80;;
26963;SDS011;14521;48.148;-1.656;2024-03-07T10:12:43;1.95;;;0.90;;
26963;SDS011;14521;48.148;-1.656;2024-03-07T10:16:05;2.55;;;0.70;;
26963;SDS011;14521;48.148;-1.656;2024-03-07T10:19:29;1.23;;;0.70;;
26963;SDS011;14521;48.148;-1.656;2024-03-07T10:22:52;1.08;;;0.65;;
26963;SDS011;14521;48.148;-1.656;2024-03-07T10:26:15;0.35;;;0.30;;
26963;SDS011;14521;48.148;-1.656;2024-03-07T10:29:38;0.88;;;0.70;;
26963;SDS011;14521;48.148;-1.656;2024-03-07T10:33:01;3.78;;;0.90;;
26963;SDS011;14521;48.148;-1.656;2024-03-07T10:36:24;0.90;;;0.90;;
26963;SDS011;14521;48.148;-1.656;2024-03-07T10:39:47;0.60;;;0.60;;
26963;SDS011;14521;48.148;-1.656;2024-03-07T10:43:12;1.65;;;0.80;;
26963;SDS011;14521;48.148;-1.656;2024-03-07T10:46:37;1.88;;;0.80;;
26963;SDS011;14521;48.148;-1.656;2024-03-07T11:00:50;1.17;;;0.80;;
26963;SDS011;14521;48.148;-1.656;2024-03-07T11:04:18;1.92;;;0.80;;
26963;SDS011;14521;48.148;-1.656;2024-03-07T11:07:43;0.73;;;0.60;;
26963;SDS011;14521;48.148;-1.656;2024-03-07T11:11:06;2.47;;;0.80;;
26963;SDS011;14521;48.148;-1.656;2024-03-07T11:14:28;2.70;;;0.70;;
26963;SDS011;14521;48.148;-1.656;2024-03-07T11:17:52;1.45;;;0.90;;
26963;SDS011;14521;48.148;-1.656;2024-03-07T11:21:50;4.05;;;0.68;;
26963;SDS011;14521;48.148;-1.656;2024-03-07T11:25:05;2.05;;;0.93;;
26963;SDS011;14521;48.148;-1.656;2024-03-07T11:28:33;1.75;;;0.90;;
26963;SDS011;14521;48.148;-1.656;2024-03-07T11:32:01;3.72;;;0.60;;
26963;SDS011;14521;48.148;-1.656;2024-03-07T11:35:33;3.38;;;0.80;;
26963;SDS011;14521;48.148;-1.656;2024-03-07T11:38:58;1.20;;;0.65;;
26963;SDS011;14521;48.148;-1.656;2024-03-07T11:42:27;1.50;;;0.70;;
26963;SDS011;14521;48.148;-1.656;2024-03-07T11:45:52;3.95;;;0.80;;
26963;SDS011;14521;48.148;-1.656;2024-03-07T11:49:15;2.17;;;0.70;;
26963;SDS011;14521;48.148;-1.656;2024-03-07T11:52:37;0.75;;;0.65;;
26963;SDS011;14521;48.148;-1.656;2024-03-07T11:56:05;1.33;;;0.60;;
26963;SDS011;14521;48.148;-1.656;2024-03-07T11:59:31;0.50;;;0.50;;
26963;SDS011;14521;48.148;-1.656;2024-03-07T12:02:59;6.38;;;1.00;;
26963;SDS011;14521;48.148;-1.656;2024-03-07T12:06:21;0.88;;;0.77;;
26963;SDS011;14521;48.148;-1.656;2024-03-07T12:09:44;3.30;;;1.10;;
26963;SDS011;14521;48.148;-1.656;2024-03-07T12:13:12;0.93;;;0.60;;
26963;SDS011;14521;48.148;-1.656;2024-03-07T12:16:37;5.15;;;0.60;;
26963;SDS011;14521;48.148;-1.656;2024-03-07T12:19:59;6.60;;;0.70;;
26963;SDS011;14521;48.148;-1.656;2024-03-07T12:23:25;1.90;;;0.60;;
26963;SDS011;14521;48.148;-1.656;2024-03-07T12:26:49;1.55;;;0.60;;
26963;SDS011;14521;48.148;-1.656;2024-03-07T12:30:15;2.25;;;0.50;;
26963;SDS011;14521;48.148;-1.656;2024-03-07T12:33:41;0.75;;;0.50;;
26963;SDS011;14521;48.148;-1.656;2024-03-07T12:37:08;1.50;;;0.50;;
26963;SDS011;14521;48.148;-1.656;2024-03-07T12:40:31;1.58;;;0.63;;
26963;SDS011;14521;48.148;-1.656;2024-03-07T12:43:56;1.08;;;0.70;;
26963;SDS011;14521;48.148;-1.656;2024-03-07T12:47:19;5.10;;;0.70;;
26963;SDS011;14521;48.148;-1.656;2024-03-07T12:50:42;3.75;;;0.60;;
26963;SDS011;14521;48.148;-1.656;2024-03-07T12:54:07;2.25;;;0.63;;
26963;SDS011;14521;48.148;-1.656;2024-03-07T12:57:33;6.53;;;0.60;;
26963;SDS011;14521;48.148;-1.656;2024-03-07T13:00:55;4.00;;;0.38;;
26963;SDS011;14521;48.148;-1.656;2024-03-07T13:04:18;3.72;;;0.60;;
26963;SDS011;14521;48.148;-1.656;2024-03-07T13:07:40;1.85;;;0.50;;
26963;SDS011;14521;48.148;-1.656;2024-03-07T13:11:03;1.27;;;0.47;;
26963;SDS011;14521;48.148;-1.656;2024-03-07T13:14:26;0.60;;;0.40;;
26963;SDS011;14521;48.148;-1.656;2024-03-07T13:17:54;1.35;;;0.52;;
26963;SDS011;14521;48.148;-1.656;2024-03-07T13:21:17;3.65;;;0.40;;
26963;SDS011;14521;48.148;-1.656;2024-03-07T13:24:39;0.80;;;0.50;;
26963;SDS011;14521;48.148;-1.656;2024-03-07T13:31:39;1.42;;;0.60;;
26963;SDS011;14521;48.148;-1.656;2024-03-07T13:35:04;1.27;;;0.50;;
26963;SDS011;14521;48.148;-1.656;2024-03-07T13:38:33;0.70;;;0.70;;
26963;SDS011;14521;48.148;-1.656;2024-03-07T13:41:56;1.85;;;0.90;;
26963;SDS011;14521;48.148;-1.656;2024-03-07T13:45:20;1.58;;;0.57;;
26963;SDS011;14521;48.148;-1.656;2024-03-07T13:48:44;0.85;;;0.40;;
26963;SDS011;14521;48.148;-1.656;2024-03-07T13:52:06;2.75;;;0.88;;
26963;SDS011;14521;48.148;-1.656;2024-03-07T13:55:29;2.15;;;0.80;;
26963;SDS011;14521;48.148;-1.656;2024-03-07T14:08:33;1.90;;;0.57;;
26963;SDS011;14521;48.148;-1.656;2024-03-07T14:12:11;1.23;;;0.65;;
26963;SDS011;14521;48.148;-1.656;2024-03-07T14:22:18;0.75;;;0.75;;
26963;SDS011;14521;48.148;-1.656;2024-03-07T14:25:55;1.15;;;1.05;;
26963;SDS011;14521;48.148;-1.656;2024-03-07T14:29:19;2.22;;;1.00;;
26963;SDS011;14521;48.148;-1.656;2024-03-07T14:32:46;1.55;;;0.63;;
26963;SDS011;14521;48.148;-1.656;2024-03-07T14:39:12;1.85;;;0.65;;
26963;SDS011;14521;48.148;-1.656;2024-03-07T14:42:24;1.20;;;0.70;;
26963;SDS011;14521;48.148;-1.656;2024-03-07T14:45:28;1.52;;;0.73;;
26963;SDS011;14521;48.148;-1.656;2024-03-07T14:48:37;0.50;;;0.45;;
26963;SDS011;14521;48.148;-1.656;2024-03-07T14:51:40;0.60;;;0.60;;
26963;SDS011;14521;48.148;-1.656;2024-03-07T14:57:58;0.90;;;0.50;;
26963;SDS011;14521;48.148;-1.656;2024-03-07T15:01:01;0.60;;;0.57;;
26963;SDS011;14521;48.148;-1.656;2024-03-07T15:04:03;1.75;;;0.80;;
26963;SDS011;14521;48.148;-1.656;2024-03-07T15:07:08;0.80;;;0.70;;
26963;SDS011;14521;48.148;-1.656;2024-03-07T15:13:33;1.00;;;0.55;;
26963;SDS011;14521;48.148;-1.656;2024-03-07T15:16:36;1.05;;;0.95;;
26963;SDS011;14521;48.148;-1.656;2024-03-07T15:19:39;2.23;;;0.60;;
26963;SDS011;14521;48.148;-1.656;2024-03-07T15:22:42;1.27;;;0.80;;
26963;SDS011;14521;48.148;-1.656;2024-03-07T15:25:47;0.60;;;0.60;;
26963;SDS011;14521;48.148;-1.656;2024-03-07T15:28:51;0.73;;;0.70;;
26963;SDS011;14521;48.148;-1.656;2024-03-07T15:31:54;0.77;;;0.57;;
26963;SDS011;14521;48.148;-1.656;2024-03-07T15:34:58;2.25;;;0.80;;
26963;SDS011;14521;48.148;-1.656;2024-03-07T15:38:03;0.80;;;0.77;;
26963;SDS011;14521;48.148;-1.656;2024-03-07T15:41:06;0.80;;;0.50;;
26963;SDS011;14521;48.148;-1.656;2024-03-07T15:44:13;2.00;;;0.82;;
26963;SDS011;14521;48.148;-1.656;2024-03-07T15:47:15;0.68;;;0.68;;
26963;SDS011;14521;48.148;-1.656;2024-03-07T15:50:25;0.80;;;0.80;;
26963;SDS011;14521;48.148;-1.656;2024-03-07T15:53:31;1.38;;;0.70;;
26963;SDS011;14521;48.148;-1.656;2024-03-07T15:56:37;0.98;;;0.73;;
26963;SDS011;14521;48.148;-1.656;2024-03-07T15:59:41;0.60;;;0.60;;
26963;SDS011;14521;48.148;-1.656;2024-03-07T16:02:45;0.95;;;0.70;;
26963;SDS011;14521;48.148;-1.656;2024-03-07T16:05:47;1.25;;;0.80;;
26963;SDS011;14521;48.148;-1.656;2024-03-07T16:08:50;1.13;;;0.95;;
26963;SDS011;14521;48.148;-1.656;2024-03-07T16:11:52;1.00;;;1.00;;
26963;SDS011;14521;48.148;-1.656;2024-03-07T16:14:55;0.80;;;0.80;;
26963;SDS011;14521;48.148;-1.656;2024-03-07T16:17:58;1.35;;;0.70;;
26963;SDS011;14521;48.148;-1.656;2024-03-07T16:21:01;1.55;;;0.88;;
26963;SDS011;14521;48.148;-1.656;2024-03-07T16:24:03;1.65;;;0.90;;
26963;SDS011;14521;48.148;-1.656;2024-03-07T16:30:10;0.95;;;0.77;;
26963;SDS011;14521;48.148;-1.656;2024-03-07T16:33:13;0.95;;;0.70;;
26963;SDS011;14521;48.148;-1.656;2024-03-07T16:36:19;1.30;;;1.20;;
26963;SDS011;14521;48.148;-1.656;2024-03-07T16:39:23;0.83;;;0.80;;
26963;SDS011;14521;48.148;-1.656;2024-03-07T16:42:26;0.77;;;0.70;;
26963;SDS011;14521;48.148;-1.656;2024-03-07T16:45:30;2.17;;;1.15;;
26963;SDS011;14521;48.148;-1.656;2024-03-07T16:48:33;1.17;;;0.90;;
26963;SDS011;14521;48.148;-1.656;2024-03-07T16:51:35;0.85;;;0.80;;
26963;SDS011;14521;48.148;-1.656;2024-03-07T16:54:37;0.68;;;0.68;;
26963;SDS011;14521;48.148;-1.656;2024-03-07T16:57:40;1.35;;;0.85;;
26963;SDS011;14521;48.148;-1.656;2024-03-07T17:00:43;0.70;;;0.70;;
26963;SDS011;14521;48.148;-1.656;2024-03-07T17:03:46;1.10;;;1.00;;
26963;SDS011;14521;48.148;-1.656;2024-03-07T17:06:48;3.13;;;1.13;;
26963;SDS011;14521;48.148;-1.656;2024-03-07T17:09:50;1.17;;;0.90;;
26963;SDS011;14521;48.148;-1.656;2024-03-07T17:12:52;2.22;;;0.90;;
26963;SDS011;14521;48.148;-1.656;2024-03-07T17:15:54;1.88;;;1.02;;
26963;SDS011;14521;48.148;-1.656;2024-03-07T17:18:59;0.98;;;0.98;;
26963;SDS011;14521;48.148;-1.656;2024-03-07T17:22:01;0.80;;;0.80;;
26963;SDS011;14521;48.148;-1.656;2024-03-07T17:25:04;0.77;;;0.77;;
26963;SDS011;14521;48.148;-1.656;2024-03-07T17:28:06;0.93;;;0.77;;
26963;SDS011;14521;48.148;-1.656;2024-03-07T17:31:09;0.70;;;0.70;;
26963;SDS011;14521;48.148;-1.656;2024-03-07T17:34:12;0.90;;;0.90;;
26963;SDS011;14521;48.148;-1.656;2024-03-07T17:37:16;1.05;;;0.60;;
26963;SDS011;14521;48.148;-1.656;2024-03-07T17:40:38;0.65;;;0.60;;
26963;SDS011;14521;48.148;-1.656;2024-03-07T17:44:01;0.70;;;0.70;;
26963;SDS011;14521;48.148;-1.656;2024-03-07T17:47:23;1.27;;;0.63;;
26963;SDS011;14521;48.148;-1.656;2024-03-07T17:50:45;0.60;;;0.60;;
26963;SDS011;14521;48.148;-1.656;2024-03-07T17:54:08;1.88;;;0.80;;
26963;SDS011;14521;48.148;-1.656;2024-03-07T17:57:33;0.90;;;0.90;;
26963;SDS011;14521;48.148;-1.656;2024-03-07T18:00:55;1.35;;;0.70;;
26963;SDS011;14521;48.148;-1.656;2024-03-07T18:04:19;0.98;;;0.73;;
26963;SDS011;14521;48.148;-1.656;2024-03-07T18:07:46;0.60;;;0.55;;
26963;SDS011;14521;48.148;-1.656;2024-03-07T18:11:10;0.60;;;0.60;;
26963;SDS011;14521;48.148;-1.656;2024-03-07T18:14:36;0.70;;;0.70;;
26963;SDS011;14521;48.148;-1.656;2024-03-07T18:17:59;2.25;;;0.70;;
26963;SDS011;14521;48.148;-1.656;2024-03-07T18:21:25;2.78;;;0.50;;
26963;SDS011;14521;48.148;-1.656;2024-03-07T18:24:48;2.50;;;0.75;;
26963;SDS011;14521;48.148;-1.656;2024-03-07T18:28:10;0.88;;;0.80;;
26963;SDS011;14521;48.148;-1.656;2024-03-07T18:31:35;0.40;;;0.40;;
26963;SDS011;14521;48.148;-1.656;2024-03-07T18:34:57;0.70;;;0.65;;
26963;SDS011;14521;48.148;-1.656;2024-03-07T18:38:19;1.90;;;0.60;;
26963;SDS011;14521;48.148;-1.656;2024-03-07T18:41:42;1.23;;;0.93;;
26963;SDS011;14521;48.148;-1.656;2024-03-07T18:45:05;0.90;;;0.90;;
26963;SDS011;14521;48.148;-1.656;2024-03-07T18:48:33;10.68;;;9.77;;
26963;SDS011;14521;48.148;-1.656;2024-03-07T18:51:56;111.57;;;99.80;;
26963;SDS011;14521;48.148;-1.656;2024-03-07T18:55:19;64.35;;;53.05;;
26963;SDS011;14521;48.148;-1.656;2024-03-07T18:58:43;204.55;;;144.10;;
26963;SDS011;14521;48.148;-1.656;2024-03-07T19:02:07;145.40;;;110.85;;
26963;SDS011;14521;48.148;-1.656;2024-03-07T19:05:37;147.43;;;100.38;;
26963;SDS011;14521;48.148;-1.656;2024-03-07T19:09:02;578.80;;;305.58;;
26963;SDS011;14521;48.148;-1.656;2024-03-07T19:12:25;684.40;;;382.42;;
26963;SDS011;14521;48.148;-1.656;2024-03-07T19:15:48;509.95;;;271.42;;
26963;SDS011;14521;48.148;-1.656;2024-03-07T19:19:13;597.63;;;328.05;;
26963;SDS011;14521;48.148;-1.656;2024-03-07T19:22:36;658.97;;;356.88;;
26963;SDS011;14521;48.148;-1.656;2024-03-07T19:25:58;614.22;;;333.35;;
26963;SDS011;14521;48.148;-1.656;2024-03-07T19:29:25;613.65;;;335.10;;
26963;SDS011;14521;48.148;-1.656;2024-03-07T19:32:47;637.65;;;341.17;;
26963;SDS011;14521;48.148;-1.656;2024-03-07T19:36:12;652.05;;;335.40;;
26963;SDS011;14521;48.148;-1.656;2024-03-07T19:39:36;711.35;;;368.98;;
26963;SDS011;14521;48.148;-1.656;2024-03-07T19:42:58;749.35;;;423.70;;
26963;SDS011;14521;48.148;-1.656;2024-03-07T19:46:23;725.42;;;410.17;;
26963;SDS011;14521;48.148;-1.656;2024-03-07T19:49:49;699.60;;;396.13;;
26963;SDS011;14521;48.148;-1.656;2024-03-07T19:53:11;643.88;;;350.08;;
26963;SDS011;14521;48.148;-1.656;2024-03-07T19:56:37;655.47;;;359.17;;
26963;SDS011;14521;48.148;-1.656;2024-03-07T20:00:00;624.63;;;343.40;;
26963;SDS011;14521;48.148;-1.656;2024-03-07T20:03:33;610.08;;;333.70;;
26963;SDS011;14521;48.148;-1.656;2024-03-07T20:06:57;600.00;;;326.95;;
26963;SDS011;14521;48.148;-1.656;2024-03-07T20:10:21;613.58;;;326.85;;
26963;SDS011;14521;48.148;-1.656;2024-03-07T20:13:44;546.30;;;280.38;;
26963;SDS011;14521;48.148;-1.656;2024-03-07T20:17:06;570.50;;;306.77;;
26963;SDS011;14521;48.148;-1.656;2024-03-07T20:20:33;536.78;;;287.70;;
26963;SDS011;14521;48.148;-1.656;2024-03-07T20:23:58;427.23;;;217.57;;
26963;SDS011;14521;48.148;-1.656;2024-03-07T20:27:20;322.08;;;158.55;;
26963;SDS011;14521;48.148;-1.656;2024-03-07T20:30:43;325.95;;;153.43;;
26963;SDS011;14521;48.148;-1.656;2024-03-07T20:34:07;311.17;;;149.48;;
26963;SDS011;14521;48.148;-1.656;2024-03-07T20:37:34;248.38;;;119.53;;